Time;durP1;ratioP1;P1;durP2;ratioP2;P2;SDS_P1;SDS_P2;PMS_P1;PMS_P2;Temp;Humidity;BMP_temperature;BMP_pressure;BME280_temperature;BME280_humidity;BME280_pressure;Samples;Min_cycle;Max_cycle;Signal;HPM_P1;HPM_P2
2023/03/11 00:02:15;;;;;;;;;1.50;1.00;;;;;7.23;57.71;100112.25;5038570;28;47461;-73
2023/03/11 00:04:40;;;;;;;;;2.00;1.00;;;;;7.31;57.79;100140.41;5055059;28;45740;-72
2023/03/11 00:07:08;;;;;;;;;2.00;1.00;;;;;7.31;57.66;100146.44;5056365;28;45587;-73
2023/03/11 00:09:33;;;;;;;;;2.00;2.00;;;;;7.30;57.86;100151.75;5056450;28;47519;-73
2023/03/11 00:15:20;;;;;;;;;5.50;2.00;;;;;7.33;57.93;100164.59;5061595;28;45614;-73
2023/03/11 00:17:49;;;;;;;;;3.50;2.00;;;;;7.35;58.04;100170.53;5055884;28;45784;-75
2023/03/11 00:20:30;;;;;;;;;2.00;1.25;;;;;7.35;57.96;100173.13;5056358;28;45878;-74
2023/03/11 00:22:57;;;;;;;;;4.00;4.00;;;;;7.37;57.99;100168.66;5055979;28;46544;-71
2023/03/11 00:25:26;;;;;;;;;4.00;4.00;;;;;7.35;58.04;100147.06;5056334;28;45850;-75
2023/03/11 00:27:51;;;;;;;;;3.50;3.50;;;;;7.36;58.19;100140.94;5037788;28;45935;-74
2023/03/11 00:30:19;;;;;;;;;2.00;2.00;;;;;7.38;57.95;100132.09;5054728;28;46597;-75
2023/03/11 00:32:47;;;;;;;;;4.00;2.00;;;;;7.38;58.08;100124.28;5055956;28;46181;-75
2023/03/11 00:35:15;;;;;;;;;4.25;4.00;;;;;7.39;57.95;100135.53;5056138;28;45956;-74
2023/03/11 00:37:41;;;;;;;;;6.00;5.00;;;;;7.40;57.87;100145.00;5055556;28;45653;-73
2023/03/11 00:40:11;;;;;;;;;5.00;4.50;;;;;7.40;58.03;100158.03;5055741;28;46387;-75
2023/03/11 00:45:58;;;;;;;;;9.00;5.50;;;;;7.32;57.98;100135.09;5055727;28;45606;-76
2023/03/11 00:48:23;;;;;;;;;8.00;6.50;;;;;7.39;57.85;100141.59;5055832;28;45559;-76
2023/03/11 00:50:49;;;;;;;;;13.00;9.75;;;;;7.38;57.87;100126.88;5055423;28;47199;-76
2023/03/11 00:53:14;;;;;;;;;14.00;10.00;;;;;7.40;57.89;100124.16;5055252;28;46310;-75
2023/03/11 00:55:40;;;;;;;;;16.50;15.00;;;;;7.33;58.16;100115.91;5037324;28;45809;-76
2023/03/11 01:01:27;;;;;;;;;15.50;13.75;;;;;7.39;58.28;100128.56;5055396;28;45544;-74
2023/03/11 01:03:52;;;;;;;;;16.50;14.75;;;;;7.35;58.39;100136.66;5055482;28;45625;-74
2023/03/11 01:06:17;;;;;;;;;13.00;13.00;;;;;7.35;58.39;100136.66;5054758;28;45626;-75
2023/03/11 01:08:44;;;;;;;;;8.25;8.25;;;;;7.35;58.49;100157.50;5037946;28;45968;-76
2023/03/11 01:11:09;;;;;;;;;12.00;9.75;;;;;7.32;58.30;100184.59;5055617;28;47287;-75
2023/03/11 01:13:35;;;;;;;;;9.00;8.00;;;;;7.31;58.43;100161.25;5055263;28;45623;-74
2023/03/11 01:16:00;;;;;;;;;9.75;9.00;;;;;7.31;58.54;100156.03;5055195;28;45732;-74
2023/03/11 01:18:26;;;;;;;;;9.25;9.00;;;;;7.29;58.56;100148.31;5054624;28;45804;-75
2023/03/11 01:20:52;;;;;;;;;9.50;9.00;;;;;7.26;58.80;100132.88;5054908;28;46325;-78
2023/03/11 01:23:18;;;;;;;;;10.00;9.00;;;;;7.25;58.74;100118.19;5054971;28;46436;-73
2023/03/11 01:25:44;;;;;;;;;11.50;9.75;;;;;7.28;58.59;100135.41;5054831;28;45778;-76
2023/03/11 01:31:31;;;;;;;;;11.25;10.75;;;;;7.30;58.67;100147.38;5054961;28;45668;-74
2023/03/11 01:33:56;;;;;;;;;6.50;5.75;;;;;7.28;58.78;100132.78;5055288;28;45584;-74
2023/03/11 01:36:21;;;;;;;;;10.00;9.00;;;;;7.26;58.77;100132.88;5056280;28;45552;-74
2023/03/11 01:38:46;;;;;;;;;8.50;8.50;;;;;7.28;58.82;100151.03;5057133;28;45612;-74
2023/03/11 01:41:12;;;;;;;;;9.25;8.25;;;;;7.31;58.92;100169.06;5055815;28;46383;-76
2023/03/11 01:47:00;;;;;;;;;5.00;4.00;;;;;7.33;58.61;100162.81;5054622;28;45531;-74
2023/03/11 01:49:26;;;;;;;;;0.75;0.75;;;;;7.32;58.89;100160.31;5054868;28;45483;-73
2023/03/11 01:52:06;;;;;;;;;3.75;3.75;;;;;7.31;58.64;100140.41;5054698;28;46327;-74
2023/03/11 01:54:36;;;;;;;;;4.25;4.00;;;;;7.35;58.77;100139.25;5054773;28;46299;-73
2023/03/11 01:57:05;;;;;;;;;2.00;2.00;;;;;7.36;58.74;100146.97;5054696;28;45958;-73
2023/03/11 01:59:34;;;;;;;;;4.00;2.50;;;;;7.37;58.44;100160.84;5054910;28;45884;-74
2023/03/11 02:02:09;;;;;;;;;3.00;2.00;;;;;7.35;58.61;100168.75;5054623;28;45530;-73
2023/03/11 02:04:36;;;;;;;;;1.00;1.00;;;;;7.38;58.49;100157.31;5054669;28;46925;-74
2023/03/11 02:07:03;;;;;;;;;1.25;1.00;;;;;7.36;58.49;100151.34;5036831;28;45970;-75
2023/03/11 02:09:28;;;;;;;;;4.00;4.00;;;;;7.35;58.40;100152.28;5054776;28;45712;-73
2023/03/11 02:11:55;;;;;;;;;2.50;1.00;;;;;7.34;58.42;100167.06;5054630;28;47838;-75
2023/03/11 02:17:56;;;;;;;;;1.75;1.00;;;;;7.36;57.65;100174.81;5059039;28;45839;-72
2023/03/11 02:20:48;;;;;;;;;1.75;1.00;;;;;7.38;57.81;100179.00;5036054;28;45943;-75
2023/03/11 02:23:16;;;;;;;;;2.00;1.00;;;;;7.36;57.65;100177.41;5055123;28;45713;-73
2023/03/11 02:25:50;;;;;;;;;1.00;1.00;;;;;7.34;57.68;100169.69;5053038;28;48168;-73
2023/03/11 02:28:18;;;;;;;;;0.75;0.75;;;;;7.28;58.03;100164.91;5036284;28;45907;-74
2023/03/11 02:30:50;;;;;;;;;1.00;0.00;;;;;7.32;58.12;100174.19;5054876;28;45538;-76
2023/03/11 02:33:20;;;;;;;;;1.00;1.00;;;;;7.31;57.85;100182.09;5037753;28;46303;-73
2023/03/11 02:35:45;;;;;;;;;3.75;2.00;;;;;7.31;58.25;100174.25;5054998;28;47040;-75
2023/03/11 02:38:11;;;;;;;;;2.00;2.00;;;;;7.26;58.18;100161.53;5053819;28;45610;-74
2023/03/11 02:40:56;;;;;;;;;1.75;1.00;;;;;7.31;58.29;100162.06;5054214;28;45500;-76
2023/03/11 02:43:26;;;;;;;;;1.50;0.75;;;;;7.29;58.34;100152.69;5053484;28;45654;-76
2023/03/11 02:45:53;;;;;;;;;1.00;1.00;;;;;7.14;58.03;100108.47;5054077;28;46997;-75
2023/03/11 02:48:20;;;;;;;;;1.50;1.00;;;;;7.24;58.01;100123.47;5054318;28;45603;-73
2023/03/11 02:50:46;;;;;;;;;1.25;1.00;;;;;7.14;58.53;100115.44;5054121;28;45789;-74
2023/03/11 02:53:11;;;;;;;;;0.50;0.50;;;;;7.13;58.58;100108.53;5054207;28;47243;-75
2023/03/11 02:55:37;;;;;;;;;2.00;2.00;;;;;7.20;58.44;100133.28;5054147;28;45951;-76
2023/03/11 02:58:02;;;;;;;;;1.50;1.00;;;;;7.14;58.63;100133.66;5055148;28;45658;-75
2023/03/11 03:00:27;;;;;;;;;4.75;2.00;;;;;7.10;58.60;100140.84;5055909;28;45662;-75
2023/03/11 03:02:53;;;;;;;;;2.00;2.00;;;;;7.09;59.18;100159.16;5055230;28;46651;-74
2023/03/11 03:05:20;;;;;;;;;2.00;2.00;;;;;7.10;59.20;100155.63;5055000;28;45936;-75
2023/03/11 03:07:47;;;;;;;;;4.00;1.00;;;;;7.04;59.15;100148.22;5054088;28;45614;-76
2023/03/11 03:10:13;;;;;;;;;1.00;1.00;;;;;7.07;59.30;100151.44;5054285;28;45846;-75
2023/03/11 03:12:39;;;;;;;;;1.00;1.00;;;;;7.07;59.26;100140.22;5053630;28;47513;-76
2023/03/11 03:18:25;;;;;;;;;2.00;1.00;;;;;7.06;59.33;100141.16;5057937;28;45724;-75
2023/03/11 03:20:52;;;;;;;;;3.00;2.00;;;;;7.03;59.25;100136.97;5053677;28;45643;-75
2023/03/11 03:23:18;;;;;;;;;1.00;1.00;;;;;7.06;59.46;100138.53;5053538;28;45744;-75
2023/03/11 03:25:44;;;;;;;;;1.00;1.00;;;;;7.05;59.37;100129.06;5035549;28;46130;-75
2023/03/11 03:28:12;;;;;;;;;2.00;1.00;;;;;7.01;59.49;100101.56;5053529;28;45662;-74
2023/03/11 03:30:39;;;;;;;;;3.00;2.00;;;;;7.02;59.39;100119.66;5057735;28;45497;-75
2023/03/11 03:33:05;;;;;;;;;5.25;3.00;;;;;6.98;59.81;100101.72;5057364;28;46443;-76
2023/03/11 03:35:32;;;;;;;;;3.00;1.00;;;;;6.88;59.48;100087.63;5056607;28;47231;-76
2023/03/11 03:37:59;;;;;;;;;1.75;1.75;;;;;6.93;59.85;100107.25;5056844;28;45693;-75
2023/03/11 03:40:24;;;;;;;;;1.50;1.50;;;;;6.92;59.84;100109.94;5056567;28;45739;-75
2023/03/11 03:42:50;;;;;;;;;3.25;2.50;;;;;6.86;60.04;100097.31;5056738;28;45499;-73
2023/03/11 03:48:36;;;;;;;;;2.00;2.00;;;;;6.87;60.32;100125.00;5056560;28;45766;-76
2023/03/11 03:51:08;;;;;;;;;2.00;2.00;;;;;6.86;60.25;100120.72;5056810;28;45665;-74
2023/03/11 03:53:34;;;;;;;;;1.00;1.00;;;;;6.84;60.12;100118.25;5056284;28;48875;-76
2023/03/11 03:56:09;;;;;;;;;2.00;1.25;;;;;6.87;60.15;100119.81;5056608;28;46603;-75
2023/03/11 03:58:34;;;;;;;;;1.00;1.00;;;;;6.90;60.07;100135.25;5056636;28;45944;-75
2023/03/11 04:01:00;;;;;;;;;3.50;1.50;;;;;6.89;60.39;100147.44;5056665;28;45571;-74
2023/03/11 04:03:27;;;;;;;;;2.00;1.50;;;;;6.90;60.23;100143.91;5056020;28;47549;-75
2023/03/11 04:05:52;;;;;;;;;2.00;2.00;;;;;6.90;60.36;100143.91;5056406;28;46035;-74
2023/03/11 04:08:18;;;;;;;;;1.50;1.50;;;;;6.90;60.54;100148.28;5072133;28;46091;-72
2023/03/11 04:10:43;;;;;;;;;1.00;1.00;;;;;6.90;60.47;100154.31;5056794;28;45619;-73
2023/03/11 04:13:09;;;;;;;;;2.50;2.50;;;;;6.91;60.59;100144.75;5056506;28;45528;-74
2023/03/11 04:18:56;;;;;;;;;5.00;3.50;;;;;6.90;60.44;100130.03;5059422;28;45641;-73
2023/03/11 04:21:21;;;;;;;;;4.00;2.00;;;;;6.85;60.59;100130.34;5056075;28;45873;-74
2023/03/11 04:23:47;;;;;;;;;2.00;2.00;;;;;6.90;60.51;100141.28;5055800;28;47366;-74
2023/03/11 04:26:13;;;;;;;;;5.00;4.00;;;;;6.83;60.58;100126.16;5055834;28;45707;-74
2023/03/11 04:28:38;;;;;;;;;4.25;4.25;;;;;6.89;60.77;100131.81;5054827;28;45565;-75
2023/03/11 04:34:25;;;;;;;;;4.25;4.00;;;;;6.87;61.21;100146.69;5055915;28;46067;-75
2023/03/11 04:36:52;;;;;;;;;4.00;4.00;;;;;6.85;61.01;100145.97;5055050;28;45826;-76
2023/03/11 04:39:18;;;;;;;;;5.75;4.00;;;;;6.80;60.95;100150.63;5055874;28;45796;-75
2023/03/11 04:41:43;;;;;;;;;4.75;4.25;;;;;6.84;61.17;100159.91;5053457;28;45861;-75
2023/03/11 04:44:08;;;;;;;;;10.00;6.00;;;;;6.79;61.36;100161.13;5055961;28;45602;-76
2023/03/11 04:49:56;;;;;;;;;6.00;6.00;;;;;6.80;61.58;100179.25;5055672;28;45740;-72
2023/03/11 04:52:21;;;;;;;;;6.00;5.00;;;;;6.79;61.29;100171.53;5055595;28;45864;-73
2023/03/11 04:54:46;;;;;;;;;6.50;5.25;;;;;6.78;61.60;100170.69;5055871;28;46469;-74
2023/03/11 04:57:12;;;;;;;;;7.00;7.00;;;;;6.79;61.53;100169.78;5056563;28;45743;-73
2023/03/11 04:59:37;;;;;;;;;10.50;6.00;;;;;6.79;61.91;100180.19;5056509;28;45728;-74
2023/03/11 05:02:03;;;;;;;;;8.00;8.00;;;;;6.79;61.66;100182.78;5056101;28;45678;-74
2023/03/11 05:04:28;;;;;;;;;9.00;5.00;;;;;6.75;61.84;100176.06;5055576;28;45509;-75
2023/03/11 05:06:53;;;;;;;;;11.25;10.75;;;;;6.75;61.81;100179.53;5037007;28;47325;-73
2023/03/11 05:09:19;;;;;;;;;11.50;9.50;;;;;6.66;61.86;100155.84;5055304;28;45626;-74
2023/03/11 05:11:44;;;;;;;;;8.50;8.00;;;;;6.64;62.30;100145.50;5037246;28;45804;-75
2023/03/11 05:14:09;;;;;;;;;8.00;6.00;;;;;6.61;62.07;100158.72;5070859;28;47480;-75
2023/03/11 05:19:56;;;;;;;;;8.00;5.75;;;;;6.58;62.30;100186.72;5062190;27;45887;-76
2023/03/11 05:22:22;;;;;;;;;11.00;6.00;;;;;6.57;62.34;100198.91;5055764;28;47124;-75
2023/03/11 05:24:47;;;;;;;;;5.50;4.50;;;;;6.55;62.39;100195.53;5056266;28;45555;-75
2023/03/11 05:27:16;;;;;;;;;8.75;7.00;;;;;6.55;62.47;100176.47;5055625;28;47238;-72
2023/03/11 05:29:42;;;;;;;;;9.75;9.00;;;;;6.52;62.75;100181.88;5055665;28;45627;-73
2023/03/11 05:35:29;;;;;;;;;8.00;6.50;;;;;6.51;62.79;100183.66;5055010;28;45940;-73
2023/03/11 05:37:59;;;;;;;;;8.75;7.50;;;;;6.49;62.81;100184.66;5054742;28;46324;-74
2023/03/11 05:40:24;;;;;;;;;8.00;6.00;;;;;6.53;62.81;100194.78;5054891;28;45640;-72
2023/03/11 05:42:50;;;;;;;;;9.50;7.00;;;;;6.41;63.14;100174.75;5054155;28;45613;-75
2023/03/11 05:45:16;;;;;;;;;9.00;8.25;;;;;6.47;63.11;100187.38;5054288;28;46659;-74
2023/03/11 05:47:41;;;;;;;;;12.50;8.25;;;;;6.55;62.85;100205.94;5054008;28;47109;-74
2023/03/11 05:50:08;;;;;;;;;10.50;9.00;;;;;6.51;62.95;100204.47;5054965;28;45806;-75
2023/03/11 05:52:34;;;;;;;;;10.25;8.00;;;;;6.56;62.84;100210.22;5054797;28;45577;-74
2023/03/11 05:54:59;;;;;;;;;6.00;6.00;;;;;6.57;63.37;100217.09;5054777;28;46401;-74
2023/03/11 05:57:24;;;;;;;;;8.50;8.50;;;;;6.58;62.98;100213.59;5054345;28;45649;-75
2023/03/11 05:59:50;;;;;;;;;9.00;8.00;;;;;6.52;63.11;100203.53;5054453;28;45542;-73
2023/03/11 06:05:47;;;;;;;;;8.00;8.00;;;;;6.58;63.11;100203.19;5054104;28;45741;-72
2023/03/11 06:08:13;;;;;;;;;8.75;8.75;;;;;6.57;63.28;100195.44;5054588;28;46355;-73
2023/03/11 06:10:39;;;;;;;;;8.00;5.25;;;;;6.51;63.12;100199.25;5054275;28;45826;-72
2023/03/11 06:13:04;;;;;;;;;8.50;7.50;;;;;6.50;63.34;100210.59;5054313;28;46015;-75
2023/03/11 06:15:32;;;;;;;;;8.00;6.00;;;;;6.53;62.88;100218.19;5054578;28;45616;-73
2023/03/11 06:21:21;;;;;;;;;6.00;5.00;;;;;6.50;63.41;100217.56;5061540;28;45946;-72
2023/03/11 06:23:47;;;;;;;;;10.25;8.00;;;;;6.51;63.44;100214.88;5054658;28;45794;-72
2023/03/11 06:26:16;;;;;;;;;7.00;6.00;;;;;6.49;63.35;100216.72;5054011;28;46377;-74
2023/03/11 06:28:42;;;;;;;;;11.00;7.50;;;;;6.52;63.46;100223.53;5054252;28;46541;-74
2023/03/11 06:31:20;;;;;;;;;8.75;6.50;;;;;6.50;63.36;100215.81;5054206;28;45650;-73
2023/03/11 06:33:47;;;;;;;;;9.75;9.50;;;;;6.54;63.55;100217.28;5054034;28;45655;-73
2023/03/11 06:36:15;;;;;;;;;15.00;10.50;;;;;6.55;63.61;100229.38;5053651;28;47601;-73
2023/03/11 06:38:40;;;;;;;;;8.25;7.50;;;;;6.54;63.34;100226.84;5053806;28;46189;-72
2023/03/11 06:41:06;;;;;;;;;10.50;8.00;;;;;6.52;63.47;100218.31;5054051;28;45678;-74
2023/03/11 06:43:33;;;;;;;;;10.75;8.75;;;;;6.54;63.64;100217.28;5054205;28;45675;-75
2023/03/11 06:45:58;;;;;;;;;9.25;9.00;;;;;6.62;63.62;100229.84;5054471;28;46474;-74
2023/03/11 06:51:46;;;;;;;;;5.50;5.50;;;;;6.57;63.51;100200.66;5054475;28;45618;-73
2023/03/11 06:54:11;;;;;;;;;6.00;5.00;;;;;6.56;63.52;100202.41;5054445;28;45722;-75
2023/03/11 06:56:36;;;;;;;;;7.50;6.00;;;;;6.67;63.63;100219.97;5053423;28;45832;-73
2023/03/11 06:59:03;;;;;;;;;8.00;8.00;;;;;6.64;63.39;100220.19;5053715;28;46084;-75
2023/03/11 07:01:28;;;;;;;;;5.50;4.75;;;;;6.66;63.61;100221.75;5053428;28;45671;-75
2023/03/11 07:03:53;;;;;;;;;9.75;7.00;;;;;6.74;63.55;100232.53;5034828;28;45851;-74
2023/03/11 07:06:22;;;;;;;;;10.25;9.00;;;;;6.77;63.51;100239.31;5035341;28;47497;-75
2023/03/11 07:08:50;;;;;;;;;7.00;6.50;;;;;6.81;63.57;100246.00;5053541;28;46184;-76
2023/03/11 07:11:16;;;;;;;;;8.00;6.50;;;;;6.86;63.65;100264.78;5053627;28;45746;-74
2023/03/11 07:13:42;;;;;;;;;6.50;5.75;;;;;6.90;63.35;100261.06;5053560;28;45793;-75
2023/03/11 07:16:14;;;;;;;;;6.00;6.00;;;;;6.93;63.17;100250.47;5053055;28;46400;-75
2023/03/11 07:22:01;;;;;;;;;12.75;9.00;;;;;7.03;62.69;100268.94;5057491;28;45609;-76
2023/03/11 07:24:26;;;;;;;;;8.00;8.00;;;;;7.04;63.02;100268.03;5055301;28;45503;-76
2023/03/11 07:26:51;;;;;;;;;8.75;7.50;;;;;7.04;62.94;100270.63;5055012;28;45648;-76
2023/03/11 07:29:17;;;;;;;;;8.50;6.75;;;;;7.08;63.04;100275.53;5053879;28;45615;-77
2023/03/11 07:31:43;;;;;;;;;10.00;10.00;;;;;6.95;62.86;100261.63;5053225;28;45980;-77
2023/03/11 07:34:12;;;;;;;;;7.25;5.75;;;;;7.03;62.65;100266.34;5053245;28;45483;-77
2023/03/11 07:36:41;;;;;;;;;6.00;6.00;;;;;7.07;62.56;100280.88;5053510;28;46458;-76
2023/03/11 07:39:07;;;;;;;;;9.00;7.00;;;;;7.15;62.34;100296.84;5053101;28;47531;-76
2023/03/11 07:41:34;;;;;;;;;8.00;6.50;;;;;7.18;62.34;100301.03;5034849;28;45973;-75
2023/03/11 07:44:02;;;;;;;;;6.00;6.00;;;;;7.20;62.38;100297.41;5053417;28;45606;-75
2023/03/11 07:46:29;;;;;;;;;5.00;5.00;;;;;7.25;62.04;100299.72;5051065;28;47077;-75
2023/03/11 07:52:16;;;;;;;;;7.50;6.00;;;;;7.29;62.09;100298.59;5049767;28;45938;-74
2023/03/11 07:54:44;;;;;;;;;6.75;6.75;;;;;7.15;61.60;100265.59;5051584;28;45841;-74
2023/03/11 07:57:15;;;;;;;;;7.50;6.50;;;;;7.29;61.25;100289.00;5034312;28;47593;-74
2023/03/11 07:59:41;;;;;;;;;11.50;6.25;;;;;7.29;61.52;100275.97;5051082;28;46182;-74
2023/03/11 08:02:06;;;;;;;;;9.25;7.25;;;;;7.31;61.54;100281.09;5051854;28;45731;-74
2023/03/11 08:07:53;;;;;;;;;11.25;9.25;;;;;7.30;61.14;100300.25;5051188;28;46062;-74
2023/03/11 08:10:19;;;;;;;;;9.00;8.00;;;;;7.38;61.24;100313.66;5052776;28;46083;-73
2023/03/11 08:12:44;;;;;;;;;12.50;9.50;;;;;7.35;61.56;100306.00;5052813;28;45574;-74
2023/03/11 08:15:10;;;;;;;;;9.50;8.25;;;;;7.42;61.43;100308.16;5054048;28;45528;-74
2023/03/11 08:17:35;;;;;;;;;12.25;12.25;;;;;7.47;61.40;100316.50;5055726;28;45507;-77
2023/03/11 08:20:00;;;;;;;;;8.50;6.75;;;;;7.48;61.38;100312.13;5055173;28;45560;-73
2023/03/11 08:22:26;;;;;;;;;12.00;10.00;;;;;7.55;61.42;100319.50;5055878;28;45736;-74
2023/03/11 08:24:51;;;;;;;;;9.75;9.75;;;;;7.59;61.23;100320.13;5055704;28;45796;-74
2023/03/11 08:27:17;;;;;;;;;13.50;10.00;;;;;7.60;61.16;100316.59;5037691;28;47321;-73
2023/03/11 08:29:42;;;;;;;;;10.00;10.00;;;;;7.66;61.16;100305.78;5055938;28;45847;-75
2023/03/11 08:32:07;;;;;;;;;9.00;8.25;;;;;7.71;61.03;100314.13;5055862;28;45753;-73
2023/03/11 08:37:54;;;;;;;;;9.00;9.00;;;;;7.79;60.99;100303.19;5054470;28;45615;-73
2023/03/11 08:40:19;;;;;;;;;10.50;9.00;;;;;7.78;60.93;100285.88;5052827;28;45717;-74
2023/03/11 08:42:45;;;;;;;;;9.00;8.25;;;;;7.86;60.61;100289.69;5053441;28;45878;-73
2023/03/11 08:45:10;;;;;;;;;12.00;9.75;;;;;7.88;60.71;100300.00;5052828;28;45846;-73
2023/03/11 08:47:37;;;;;;;;;10.00;9.00;;;;;7.88;60.78;100298.22;5052498;28;46016;-74
2023/03/11 08:53:24;;;;;;;;;10.25;10.00;;;;;7.86;60.54;100325.34;5055760;28;45700;-76
2023/03/11 08:55:51;;;;;;;;;10.00;9.50;;;;;7.94;60.74;100325.66;5055601;28;45933;-74
2023/03/11 08:58:16;;;;;;;;;10.50;9.75;;;;;7.96;60.10;100332.47;5055491;28;48695;-74
2023/03/11 09:00:42;;;;;;;;;9.25;7.25;;;;;7.98;60.10;100329.78;5055372;28;46029;-74
2023/03/11 09:03:07;;;;;;;;;9.25;9.00;;;;;8.01;60.16;100335.63;5055261;28;45701;-73
2023/03/11 09:05:32;;;;;;;;;9.00;7.50;;;;;8.02;59.89;100332.09;5055572;28;45582;-73
2023/03/11 09:07:58;;;;;;;;;10.50;9.75;;;;;8.08;59.80;100330.00;5055135;28;46357;-74
2023/03/11 09:10:23;;;;;;;;;10.00;7.00;;;;;8.16;59.65;100330.31;5055283;28;45701;-74
2023/03/11 09:12:48;;;;;;;;;6.75;6.75;;;;;8.11;58.97;100311.53;5055383;28;45866;-74
2023/03/11 09:15:14;;;;;;;;;11.50;9.75;;;;;8.20;59.11;100329.22;5055095;28;45570;-74
2023/03/11 09:17:39;;;;;;;;;7.00;5.75;;;;;8.22;59.04;100327.31;5054676;28;47486;-74
2023/03/11 09:23:26;;;;;;;;;3.00;3.00;;;;;8.30;58.85;100325.94;5063071;28;45844;-75
2023/03/11 09:25:51;;;;;;;;;6.75;5.75;;;;;8.37;58.94;100315.91;5056032;28;45807;-74
2023/03/11 09:28:17;;;;;;;;;7.00;6.50;;;;;8.42;58.85;100321.66;5036846;28;46343;-74
2023/03/11 09:30:42;;;;;;;;;8.50;7.00;;;;;8.45;58.55;100324.06;5055355;28;45916;-74
2023/03/11 09:33:07;;;;;;;;;9.75;9.75;;;;;8.46;58.86;100309.25;5055050;28;45793;-72
2023/03/11 09:35:33;;;;;;;;;9.25;9.00;;;;;8.54;58.24;100320.81;5054777;28;45873;-75
2023/03/11 09:37:58;;;;;;;;;6.75;6.75;;;;;8.60;58.41;100320.41;5036318;28;45594;-73
2023/03/11 09:40:27;;;;;;;;;9.75;8.00;;;;;8.64;58.16;100326.25;5053977;28;47270;-74
2023/03/11 09:42:58;;;;;;;;;7.50;7.00;;;;;8.71;58.24;100322.31;5054899;28;45974;-82
2023/03/11 09:45:29;;;;;;;;;4.50;2.25;;;;;8.73;58.04;100325.66;5055324;28;45630;-74
2023/03/11 09:48:10;;;;;;;;;5.00;5.00;;;;;8.77;57.44;100330.56;5054272;28;47463;-74
2023/03/11 09:50:57;;;;;;;;;7.50;6.25;;;;;8.81;57.19;100326.78;5054830;28;46165;-76
2023/03/11 09:53:42;;;;;;;;;9.00;7.00;;;;;8.85;57.08;100322.22;5054863;28;45602;-75
2023/03/11 09:56:13;;;;;;;;;3.50;3.50;;;;;8.88;56.86;100315.94;5055286;28;45929;-75
2023/03/11 09:58:42;;;;;;;;;7.25;6.50;;;;;8.85;56.92;100309.16;5054996;28;46377;-76
2023/03/11 10:01:28;;;;;;;;;6.00;6.00;;;;;8.93;56.23;100330.34;5053945;28;47145;-75
2023/03/11 10:07:21;;;;;;;;;4.25;4.00;;;;;9.01;56.40;100332.44;5054159;28;45496;-74
2023/03/11 10:09:58;;;;;;;;;6.25;6.25;;;;;9.06;56.30;100343.41;5054034;28;46581;-75
2023/03/11 10:12:33;;;;;;;;;7.00;5.75;;;;;9.12;56.21;100341.19;5054486;28;46299;-75
2023/03/11 10:15:24;;;;;;;;;5.50;5.50;;;;;9.18;56.26;100345.16;5054243;28;45725;-73
2023/03/11 10:18:19;;;;;;;;;4.00;4.00;;;;;9.25;56.09;100351.63;5054416;28;45762;-74
2023/03/11 10:24:30;;;;;;;;;2.25;2.00;;;;;9.39;55.35;100353.31;5054614;28;45824;-74
2023/03/11 10:27:01;;;;;;;;;5.25;4.00;;;;;9.43;55.39;100341.69;5053235;28;45668;-74
2023/03/11 10:29:39;;;;;;;;;4.75;3.00;;;;;9.48;54.49;100337.78;5053830;28;45480;-73
2023/03/11 10:32:24;;;;;;;;;2.00;2.00;;;;;9.51;54.84;100334.09;5054174;28;45782;-74
2023/03/11 10:38:20;;;;;;;;;3.50;3.00;;;;;9.58;54.93;100345.81;5053192;28;45884;-75
2023/03/11 10:40:49;;;;;;;;;6.00;6.00;;;;;9.63;54.65;100344.53;5053781;28;45812;-74
2023/03/11 10:43:18;;;;;;;;;2.00;2.00;;;;;9.69;54.28;100348.50;5053812;28;46367;-74
2023/03/11 10:45:47;;;;;;;;;4.50;3.00;;;;;9.71;54.25;100349.25;5053590;28;47021;-74
2023/03/11 10:48:15;;;;;;;;;6.00;3.50;;;;;9.77;54.52;100340.94;5053435;28;45674;-73
2023/03/11 10:54:03;;;;;;;;;4.75;3.00;;;;;9.84;53.50;100354.41;5053372;28;45542;-75
2023/03/11 10:56:30;;;;;;;;;4.50;4.50;;;;;9.87;53.64;100352.44;5053740;28;46099;-74
2023/03/11 10:58:56;;;;;;;;;6.00;3.50;;;;;9.85;53.53;100335.16;5053280;28;45761;-76
2023/03/11 11:01:22;;;;;;;;;3.50;3.00;;;;;9.87;53.66;100328.88;5053494;28;46105;-75
2023/03/11 11:03:51;;;;;;;;;6.50;5.00;;;;;10.01;53.18;100335.72;5054510;28;46546;-75
2023/03/11 11:09:38;;;;;;;;;4.75;4.75;;;;;10.08;52.90;100342.16;5053681;28;45861;-76
2023/03/11 11:12:15;;;;;;;;;2.25;2.00;;;;;10.13;53.04;100340.06;5053522;28;45708;-74
2023/03/11 11:14:49;;;;;;;;;5.50;4.25;;;;;10.18;53.26;100340.59;5053054;28;46324;-73
2023/03/11 11:17:18;;;;;;;;;6.25;5.50;;;;;10.23;52.91;100332.38;5035848;28;47112;-75
2023/03/11 11:26:23;;;;;;;;;6.50;6.00;;;;;10.41;52.54;100320.56;5057024;28;45683;-74
2023/03/11 11:29:11;;;;;;;;;7.00;5.75;;;;;10.48;52.50;100332.22;5054099;28;46047;-74
2023/03/11 11:31:43;;;;;;;;;6.00;4.00;;;;;10.51;52.40;100324.97;5054375;28;45753;-76
2023/03/11 11:34:28;;;;;;;;;6.75;6.00;;;;;10.59;52.09;100328.78;5053702;28;45641;-74
2023/03/11 11:40:15;;;;;;;;;6.75;4.00;;;;;10.60;51.71;100328.69;5053029;28;45625;-74
2023/03/11 11:42:49;;;;;;;;;3.50;3.50;;;;;10.62;51.80;100326.78;5053056;28;45659;-74
2023/03/11 11:45:37;;;;;;;;;4.25;4.25;;;;;10.65;51.60;100321.31;5053575;28;45541;-77
2023/03/11 11:48:29;;;;;;;;;5.50;4.00;;;;;10.71;51.49;100315.59;5054403;28;45546;-76
2023/03/11 11:50:58;;;;;;;;;4.50;3.00;;;;;10.74;51.23;100299.63;4974908;28;46014;-75
2023/03/11 11:53:34;;;;;;;;;8.00;6.00;;;;;10.78;51.08;100306.31;4975715;28;46080;-75
2023/03/11 11:56:00;;;;;;;;;8.75;6.75;;;;;10.80;50.77;100303.56;4975316;28;45677;-75
2023/03/11 11:58:25;;;;;;;;;8.75;7.50;;;;;10.83;51.28;100309.44;4975083;28;47606;-74
2023/03/11 12:00:51;;;;;;;;;6.25;6.25;;;;;10.88;51.25;100311.69;4974543;28;47284;-75
2023/03/11 12:03:31;;;;;;;;;2.00;2.00;;;;;10.94;51.43;100314.69;4975050;28;45799;-75
2023/03/11 12:05:59;;;;;;;;;6.00;6.00;;;;;11.04;50.60;100317.41;4974582;28;45522;-75
2023/03/11 12:08:34;;;;;;;;;3.50;3.50;;;;;11.10;50.76;100313.47;4974835;28;46374;-74
2023/03/11 12:11:03;;;;;;;;;2.25;2.00;;;;;11.17;50.72;100322.53;4974773;28;46440;-75
2023/03/11 12:14:01;;;;;;;;;2.25;2.25;;;;;11.23;50.62;100322.88;4973516;28;45718;-74
2023/03/11 12:16:50;;;;;;;;;4.50;3.50;;;;;11.31;50.35;100304.78;4974618;28;45515;-75
2023/03/11 12:19:43;;;;;;;;;4.00;3.25;;;;;11.32;49.02;100298.56;4974437;28;45803;-73
2023/03/11 12:22:11;;;;;;;;;3.75;3.75;;;;;11.32;49.09;100303.81;4916165;28;46059;-76
2023/03/11 12:25:08;;;;;;;;;3.75;3.75;;;;;11.29;49.18;100306.66;4919482;28;45788;-74
2023/03/11 12:27:39;;;;;;;;;4.50;4.00;;;;;11.31;49.34;100299.53;4963635;28;45915;-75
2023/03/11 12:30:15;;;;;;;;;3.25;3.25;;;;;11.35;49.34;100295.69;5013923;28;45772;-74
2023/03/11 12:32:45;;;;;;;;;4.00;3.50;;;;;11.43;49.22;100297.72;5013930;28;46219;-75
2023/03/11 12:35:29;;;;;;;;;2.50;2.00;;;;;11.51;49.43;100292.69;5013310;28;45634;-75
2023/03/11 12:38:13;;;;;;;;;3.00;3.00;;;;;11.59;49.02;100292.09;5013421;28;45727;-74
2023/03/11 12:40:41;;;;;;;;;4.50;4.50;;;;;11.64;49.16;100282.03;5013030;28;45712;-74
2023/03/11 12:43:28;;;;;;;;;6.75;6.00;;;;;11.69;48.75;100291.22;5012992;28;45586;-76
2023/03/11 12:45:58;;;;;;;;;4.00;4.00;;;;;11.75;48.64;100295.16;5012061;28;45933;-73
2023/03/11 12:48:24;;;;;;;;;7.00;5.00;;;;;11.69;47.91;100275.47;5013918;28;45720;-75
2023/03/11 12:50:49;;;;;;;;;3.25;3.00;;;;;11.73;47.50;100281.31;5013676;28;45790;-74
2023/03/11 12:53:17;;;;;;;;;4.75;3.25;;;;;11.69;47.58;100287.75;4996768;28;46409;-74
2023/03/11 12:56:05;;;;;;;;;5.25;4.00;;;;;11.69;47.96;100287.75;5012883;28;45925;-74
2023/03/11 12:59:14;;;;;;;;;3.75;3.25;;;;;11.69;48.29;100280.72;5024213;28;45667;-75
2023/03/11 13:01:52;;;;;;;;;3.00;2.25;;;;;11.75;48.10;100274.16;5074647;28;46624;-76
2023/03/11 13:04:36;;;;;;;;;4.00;4.00;;;;;11.82;48.23;100285.00;5075220;28;46024;-74
2023/03/11 13:10:43;;;;;;;;;3.75;3.75;;;;;11.93;48.04;100274.47;5075791;28;45573;-75
2023/03/11 13:13:28;;;;;;;;;4.75;4.75;;;;;11.92;47.83;100267.56;5075584;28;46304;-75
2023/03/11 13:15:54;;;;;;;;;5.25;4.75;;;;;11.94;47.57;100270.84;5057161;28;46130;-75
2023/03/11 13:18:23;;;;;;;;;7.50;3.25;;;;;11.94;47.68;100270.84;5075722;28;45687;-74
2023/03/11 13:20:54;;;;;;;;;4.00;4.00;;;;;11.94;48.31;100273.50;5075474;28;45579;-73
2023/03/11 13:27:07;;;;;;;;;5.00;4.00;;;;;12.00;48.01;100267.72;5062152;28;46240;-73